ヨハネスブルグ の空港の天気 - METARとTAF

ヨハネスブルグ/O.R.タンボ国際空港 ( FAOR / JNB ) - 南アフリカ ヨハネスブルグ
飛行場実況気象(Metar)
観測時間06/25 15:00 SAST (06/25 13:00 UTC)
風向・風速東南東 2m/s
視程10km以上
天気現象
なし
気温18℃
湿度19%
気圧1026hPa
METARFAOR 251300Z 12004KT 020V190 CAVOK 18/M06 Q1026 NOSIG
過去の天気等 Google飛行場航空写真 Wunderground天気予報

過去48時間のMETAR

飛行場予報(TAF)
発表時間: 6/25 12:00 SAST (6/25 10:00 UTC)
予報対象時間: 25日14時 SAST ~ 26日20時 SAST
風向・風速不定 2m/s
視程10km以上
なし
25日17時 SAST ~ 25日19時 SAST に徐々に
風向・風速南西 3m/s
25日23時 SAST ~ 26日1時 SAST に徐々に
風向・風速東 3m/s
26日8時 SAST ~ 26日10時 SAST に徐々に
風向・風速北 4m/s
TAF FAOR 251000Z 2512/2618 VRB03KT CAVOK
BECMG 2515/2517 23005KT
BECMG 2521/2523 08005KT
BECMG 2606/2608 01007KT TX19/2513Z TN05/2605Z